createdAt,value
2019-04-04T00:03:21.182Z,5.70
2019-04-04T00:05:56.737Z,6.33
2019-04-04T00:08:32.831Z,5.63
2019-04-04T00:11:07.367Z,5.15
2019-04-04T00:13:36.696Z,6.60
2019-04-04T00:16:06.019Z,11.47
2019-04-04T00:18:35.350Z,4.93
2019-04-04T00:21:04.677Z,5.35
2019-04-04T00:23:34.007Z,5.60
2019-04-04T00:26:03.666Z,5.57
2019-04-04T00:28:33.070Z,12.40
2019-04-04T00:31:02.415Z,13.80
2019-04-04T00:33:31.736Z,8.40
2019-04-04T00:36:02.658Z,5.43
2019-04-04T00:38:38.502Z,5.90
2019-04-04T00:41:14.339Z,5.97
2019-04-04T00:43:43.662Z,12.73
2019-04-04T00:46:13.008Z,13.13
2019-04-04T00:48:42.328Z,5.30
2019-04-04T00:51:11.927Z,7.87
2019-04-04T00:53:43.097Z,5.97
2019-04-04T00:56:18.124Z,9.95
2019-04-04T00:58:58.093Z,6.07
2019-04-04T01:01:27.423Z,8.77
2019-04-04T01:03:56.746Z,8.30
2019-04-04T01:06:26.086Z,7.00
2019-04-04T01:08:55.408Z,5.93
2019-04-04T01:11:29.966Z,7.25
2019-04-04T01:13:59.294Z,8.40
2019-04-04T01:16:28.627Z,8.50
2019-04-04T01:18:57.965Z,8.65
2019-04-04T01:21:27.282Z,7.60
2019-04-04T01:23:58.354Z,10.48
2019-04-04T01:26:46.745Z,9.83
2019-04-04T01:29:16.106Z,7.30
2019-04-04T01:31:45.986Z,9.05
2019-04-04T01:34:25.847Z,10.63
2019-04-04T01:36:56.413Z,10.08
2019-04-04T01:39:36.220Z,8.88
2019-04-04T01:42:07.174Z,7.63
2019-04-04T01:44:42.829Z,10.13
2019-04-04T01:47:18.698Z,8.70
2019-04-04T01:49:48.044Z,11.80
2019-04-04T01:52:17.381Z,11.12
2019-04-04T01:54:46.725Z,17.48
2019-04-04T01:57:16.054Z,12.47
2019-04-04T01:59:45.396Z,7.67
2019-04-04T02:02:17.666Z,9.00
2019-04-04T02:04:51.013Z,8.03
2019-04-04T02:07:20.351Z,10.28
2019-04-04T02:09:49.670Z,9.90
2019-04-04T02:12:19.021Z,12.28
2019-04-04T02:14:48.343Z,11.30
2019-04-04T02:17:17.675Z,13.72
2019-04-04T02:19:47.022Z,13.85
2019-04-04T02:22:16.357Z,12.93
2019-04-04T02:24:45.695Z,9.30
2019-04-04T02:27:15.030Z,11.80
2019-04-04T02:29:44.363Z,11.30
2019-04-04T02:35:49.076Z,22.60
2019-04-04T02:38:18.427Z,12.07
2019-04-04T02:41:06.879Z,11.85
2019-04-04T02:43:36.452Z,15.10
2019-04-04T02:46:05.792Z,13.30
2019-04-04T02:48:35.144Z,13.25
2019-04-04T02:51:07.042Z,16.05
2019-04-04T02:53:41.099Z,16.15
2019-04-04T02:56:10.437Z,15.53
2019-04-04T02:58:39.843Z,11.75
2019-04-04T03:01:09.180Z,15.23
2019-04-04T03:03:41.029Z,11.73
2019-04-04T03:06:14.683Z,21.12
2019-04-04T03:08:44.162Z,17.77
2019-04-04T03:11:13.749Z,17.07
2019-04-04T03:13:48.764Z,18.95
2019-04-04T03:16:21.039Z,19.20
2019-04-04T03:18:58.825Z,22.80
2019-04-04T03:21:28.168Z,20.80
2019-04-04T03:23:59.162Z,19.85
2019-04-04T03:26:28.501Z,19.60
2019-04-04T03:28:57.849Z,20.43
2019-04-04T03:31:27.189Z,21.83
2019-04-04T03:33:56.529Z,30.97
2019-04-04T03:36:25.871Z,24.02
2019-04-04T03:38:55.214Z,24.77
2019-04-04T03:41:24.543Z,24.70
2019-04-04T03:43:53.889Z,21.50
2019-04-04T03:46:23.239Z,24.50
2019-04-04T03:48:52.572Z,25.97
2019-04-04T03:51:21.913Z,23.40
2019-04-04T03:56:38.798Z,27.05
2019-04-04T03:59:22.220Z,35.20
2019-04-04T04:01:51.573Z,26.57
2019-04-04T04:04:20.913Z,31.30
2019-04-04T04:06:50.253Z,33.63
2019-04-04T04:09:19.603Z,34.73
2019-04-04T04:11:48.954Z,37.13
2019-04-04T04:14:21.618Z,31.30
2019-04-04T04:17:09.071Z,37.67
2019-04-04T04:19:44.675Z,34.53
2019-04-04T04:22:18.016Z,31.87
2019-04-04T04:28:24.250Z,32.55
2019-04-04T04:30:53.594Z,28.00
2019-04-04T04:33:22.941Z,28.20
2019-04-04T04:35:52.294Z,35.45
2019-04-04T04:38:25.377Z,32.53
2019-04-04T04:40:58.299Z,28.80
2019-04-04T04:43:32.230Z,35.75
2019-04-04T04:46:08.210Z,32.42
2019-04-04T04:48:37.587Z,35.60
2019-04-04T04:51:06.902Z,40.03
2019-04-04T04:53:36.245Z,41.37
2019-04-04T04:56:05.587Z,43.08
2019-04-04T04:58:34.920Z,46.73
2019-04-04T05:01:04.279Z,45.47
2019-04-04T05:03:33.616Z,42.20
2019-04-04T05:06:22.067Z,52.80
2019-04-04T05:08:51.411Z,54.80
2019-04-04T05:11:21.087Z,47.50
2019-04-04T05:13:50.437Z,54.15
2019-04-04T05:16:19.776Z,52.70
2019-04-04T05:18:49.117Z,56.48
2019-04-04T05:21:24.898Z,56.95
2019-04-04T05:24:28.240Z,65.25
2019-04-04T05:26:57.602Z,58.45
2019-04-04T05:29:26.936Z,59.65
2019-04-04T05:31:56.356Z,64.75
2019-04-04T05:34:25.716Z,67.15
2019-04-04T05:36:55.036Z,59.20
2019-04-04T05:39:24.656Z,57.62
2019-04-04T05:41:54.035Z,60.83
2019-04-04T05:44:23.348Z,68.45
2019-04-04T05:46:52.688Z,66.25
2019-04-04T05:49:22.043Z,67.80
2019-04-04T05:51:51.384Z,72.72
2019-04-04T05:54:20.723Z,53.60
2019-04-04T05:56:50.077Z,58.08
2019-04-04T05:59:19.442Z,61.83
2019-04-04T06:01:48.763Z,55.43
2019-04-04T06:04:19.581Z,67.40
2019-04-04T06:06:55.753Z,67.22
2019-04-04T06:09:31.340Z,73.33
2019-04-04T06:12:13.373Z,67.53
2019-04-04T06:14:43.728Z,67.53
2019-04-04T06:17:19.226Z,65.47
2019-04-04T06:19:48.593Z,66.95
2019-04-04T06:22:19.065Z,63.90
2019-04-04T06:24:54.311Z,66.75
2019-04-04T06:27:23.643Z,71.97
2019-04-04T06:29:52.983Z,75.70
2019-04-04T06:32:24.307Z,86.47
2019-04-04T06:34:56.753Z,74.47
2019-04-04T06:37:34.128Z,80.12
2019-04-04T06:40:48.432Z,85.40
2019-04-04T06:43:19.415Z,92.05
2019-04-04T06:45:50.404Z,70.47
2019-04-04T06:48:21.753Z,69.65
2019-04-04T06:50:52.996Z,67.53
2019-04-04T06:53:23.987Z,62.88
2019-04-04T06:55:54.992Z,69.17
2019-04-04T06:58:25.968Z,65.20
2019-04-04T07:00:56.951Z,67.95
2019-04-04T07:03:27.860Z,67.87
2019-04-04T07:06:16.427Z,65.52
2019-04-04T07:08:46.787Z,71.15
2019-04-04T07:11:35.962Z,66.87
2019-04-04T07:14:05.321Z,56.73
2019-04-04T07:16:36.760Z,67.03
2019-04-04T07:19:16.680Z,59.95
2019-04-04T07:22:05.497Z,59.55
2019-04-04T07:24:34.867Z,55.50
2019-04-04T07:27:04.192Z,60.08
2019-04-04T07:29:33.531Z,63.28
2019-04-04T07:32:02.883Z,60.80
2019-04-04T07:34:33.863Z,62.95
2019-04-04T07:37:03.215Z,63.98
2019-04-04T07:39:34.262Z,62.65
2019-04-04T07:42:05.354Z,70.65
2019-04-04T07:44:36.333Z,68.97
2019-04-04T07:47:19.676Z,69.47
2019-04-04T07:49:50.639Z,56.80
2019-04-04T07:52:21.619Z,61.37
2019-04-04T07:54:52.609Z,58.45
2019-04-04T07:57:23.590Z,62.37
2019-04-04T07:59:54.565Z,71.35
2019-04-04T08:02:25.551Z,56.75
2019-04-04T08:04:56.533Z,66.22
2019-04-04T08:07:27.532Z,58.02
2019-04-04T08:09:58.507Z,63.25
2019-04-04T08:12:29.499Z,63.60
2019-04-04T08:15:00.473Z,62.10
2019-04-04T08:17:31.466Z,61.55
2019-04-04T08:20:02.442Z,67.05
2019-04-04T08:22:33.458Z,63.98
2019-04-04T08:25:44.338Z,67.10
2019-04-04T08:28:15.328Z,73.52
2019-04-04T08:30:46.305Z,75.78
2019-04-04T08:33:17.284Z,72.03
2019-04-04T08:35:48.277Z,67.08
2019-04-04T08:38:19.240Z,66.17
2019-04-04T08:40:50.203Z,64.83
2019-04-04T08:43:33.228Z,81.37
2019-04-04T08:46:04.276Z,68.57
2019-04-04T08:48:35.268Z,69.13
2019-04-04T08:51:06.306Z,69.73
2019-04-04T08:53:40.311Z,65.40
2019-04-04T08:56:27.426Z,68.07
2019-04-04T08:58:58.401Z,65.73
2019-04-04T09:01:29.368Z,62.17
2019-04-04T09:04:00.359Z,63.00
2019-04-04T09:06:31.330Z,59.03
2019-04-04T09:09:21.658Z,52.25
2019-04-04T09:11:52.627Z,56.47
2019-04-04T09:14:23.613Z,48.52
2019-04-04T09:16:54.586Z,52.23
2019-04-04T09:19:25.558Z,51.17
2019-04-04T09:21:54.884Z,52.63
2019-04-04T09:24:26.299Z,64.30
2019-04-04T09:26:57.276Z,57.60
2019-04-04T09:29:28.260Z,64.00
2019-04-04T09:31:57.588Z,64.07
2019-04-04T09:34:26.990Z,64.77
2019-04-04T09:36:56.332Z,69.93
2019-04-04T09:39:25.673Z,64.90
2019-04-04T09:41:55.008Z,71.33
2019-04-04T09:44:24.348Z,66.57
2019-04-04T09:47:04.791Z,61.90
2019-04-04T09:49:30.416Z,65.25
2019-04-04T09:52:01.391Z,64.67
2019-04-04T09:54:30.732Z,62.73
2019-04-04T09:57:01.701Z,54.67
2019-04-04T09:59:31.047Z,53.90
2019-04-04T10:02:02.016Z,69.20
2019-04-04T10:04:32.992Z,54.47
2019-04-04T10:07:02.325Z,54.30
2019-04-04T10:09:33.299Z,57.80
2019-04-04T10:12:04.268Z,64.07
2019-04-04T10:14:35.344Z,55.47
2019-04-04T10:23:08.276Z,57.80
2019-04-04T10:25:37.800Z,64.67
2019-04-04T10:28:07.147Z,57.77
2019-04-04T10:30:36.593Z,55.13
2019-04-04T10:33:05.983Z,49.73
2019-04-04T10:35:36.963Z,49.93
2019-04-04T10:38:07.936Z,54.33
2019-04-04T10:40:38.916Z,44.00
2019-04-04T10:43:08.519Z,44.53
2019-04-04T10:45:57.200Z,36.30
2019-04-04T10:48:26.533Z,33.00
2019-04-04T10:50:55.864Z,39.10
2019-04-04T10:53:26.840Z,35.20
2019-04-04T10:55:56.168Z,32.33
2019-04-04T10:58:25.505Z,32.73
2019-04-04T11:01:14.193Z,35.20
2019-04-04T11:03:43.632Z,37.35
2019-04-04T11:06:12.980Z,33.87
2019-04-04T11:08:42.308Z,33.17
2019-04-04T11:11:11.654Z,33.13
2019-04-04T11:13:41.000Z,33.50
2019-04-04T11:16:10.321Z,34.40
2019-04-04T11:18:39.661Z,33.50
2019-04-04T11:21:08.999Z,26.93
2019-04-04T11:23:38.333Z,28.27
2019-04-04T11:26:07.664Z,24.87
2019-04-04T11:28:37.004Z,27.93
2019-04-04T11:31:06.337Z,28.77
2019-04-04T11:33:35.669Z,27.57
2019-04-04T11:36:05.081Z,28.60
2019-04-04T11:38:34.407Z,24.87
2019-04-04T11:41:03.810Z,30.17
2019-04-04T11:43:33.152Z,32.83
2019-04-04T11:46:02.489Z,25.30
2019-04-04T11:48:31.858Z,29.90
2019-04-04T11:51:01.168Z,26.23
2019-04-04T11:53:32.276Z,29.10
2019-04-04T11:56:01.850Z,26.02
2019-04-04T11:58:32.816Z,26.50
2019-04-04T12:03:41.691Z,21.90
2019-04-04T12:06:12.657Z,19.40
2019-04-04T12:08:43.637Z,19.80
2019-04-04T12:11:12.968Z,21.00
2019-04-04T12:13:43.951Z,19.50
2019-04-04T12:16:13.284Z,19.60
2019-04-04T12:18:44.267Z,20.30
2019-04-04T12:21:15.231Z,17.67
2019-04-04T12:23:46.195Z,22.13
2019-04-04T12:26:15.609Z,20.00
2019-04-04T12:28:44.939Z,17.47
2019-04-04T12:31:14.289Z,14.05
2019-04-04T12:33:43.860Z,16.43
2019-04-04T12:36:23.994Z,21.15
2019-04-04T12:42:03.554Z,10.85
2019-04-04T12:44:33.037Z,10.00
2019-04-04T12:47:02.428Z,16.53
2019-04-04T12:49:31.773Z,7.22
2019-04-04T12:52:01.488Z,7.90
2019-04-04T12:54:44.236Z,9.90
2019-04-04T12:57:13.606Z,6.65
2019-04-04T12:59:42.942Z,6.95
2019-04-04T13:02:12.285Z,8.58
2019-04-04T13:04:43.263Z,16.93
2019-04-04T13:07:12.705Z,7.05
2019-04-04T13:09:43.666Z,8.63
2019-04-04T13:12:12.995Z,10.90
2019-04-04T13:15:01.442Z,10.10
2019-04-04T13:17:30.814Z,10.23
2019-04-04T13:20:00.201Z,10.00
2019-04-04T13:22:29.708Z,9.85
2019-04-04T13:24:59.250Z,9.27
2019-04-04T13:27:28.736Z,11.12
2019-04-04T13:29:58.137Z,11.93
2019-04-04T13:32:27.596Z,11.90
2019-04-04T13:34:59.916Z,15.25
2019-04-04T13:37:38.894Z,12.55
2019-04-04T13:43:42.655Z,10.68
2019-04-04T13:46:12.003Z,16.42
2019-04-04T13:48:43.511Z,9.73
2019-04-04T13:51:20.640Z,11.47
2019-04-04T13:53:58.002Z,12.60
2019-04-04T13:56:29.271Z,10.10
2019-04-04T13:59:17.482Z,10.50
2019-04-04T14:01:46.823Z,14.63
2019-04-04T14:04:16.260Z,11.68
2019-04-04T14:06:45.600Z,10.65
2019-04-04T14:10:17.084Z,10.58
2019-04-04T14:12:50.105Z,8.80
2019-04-04T14:15:19.522Z,15.40
2019-04-04T14:17:48.845Z,9.05
2019-04-04T14:20:18.183Z,13.13
2019-04-04T14:22:47.735Z,9.37
2019-04-04T14:25:23.952Z,10.50
2019-04-04T14:27:58.709Z,11.20
2019-04-04T14:30:28.023Z,10.00
2019-04-04T14:33:03.199Z,10.35
2019-04-04T14:35:32.518Z,8.77
2019-04-04T14:38:01.843Z,8.73
2019-04-04T14:40:31.173Z,7.67
2019-04-04T14:43:00.573Z,9.15
2019-04-04T14:45:29.906Z,9.33
2019-04-04T14:47:59.645Z,7.70
2019-04-04T14:50:28.968Z,7.40
2019-04-04T14:52:58.285Z,9.77
2019-04-04T14:55:27.625Z,7.70
2019-04-04T14:57:57.257Z,6.77
2019-04-04T15:00:26.580Z,6.87
2019-04-04T15:02:55.914Z,7.90
2019-04-04T15:05:25.235Z,7.87
2019-04-04T15:07:54.556Z,7.73
2019-04-04T15:10:23.893Z,7.07
2019-04-04T15:12:53.213Z,6.63
2019-04-04T15:15:22.533Z,7.40
2019-04-04T15:17:52.214Z,8.17
2019-04-04T15:20:21.541Z,11.20
2019-04-04T15:22:51.192Z,7.40
2019-04-04T15:25:20.533Z,9.30
2019-04-04T15:27:49.853Z,7.50
2019-04-04T15:30:24.990Z,7.47
2019-04-04T15:32:54.328Z,6.20
2019-04-04T15:35:23.646Z,5.90
2019-04-04T15:37:52.965Z,6.60
2019-04-04T15:40:22.297Z,5.37
2019-04-04T15:42:51.630Z,5.92
2019-04-04T15:45:20.952Z,7.40
2019-04-04T15:47:50.291Z,6.43
2019-04-04T15:50:38.951Z,6.50
2019-04-04T15:53:08.285Z,6.90
2019-04-04T15:55:37.750Z,9.80
2019-04-04T15:58:07.171Z,7.45
2019-04-04T16:00:36.440Z,12.17
2019-04-04T16:03:05.763Z,8.53
2019-04-04T16:05:35.101Z,9.63
2019-04-04T16:08:04.521Z,6.50
2019-04-04T16:10:33.834Z,7.77
2019-04-04T16:13:03.184Z,12.83
2019-04-04T16:15:32.545Z,8.83
2019-04-04T16:18:02.215Z,6.70
2019-04-04T16:20:31.571Z,6.70
2019-04-04T16:23:00.929Z,10.40
2019-04-04T16:25:30.243Z,6.53
2019-04-04T16:27:59.597Z,5.50
2019-04-04T16:30:29.026Z,11.73
2019-04-04T16:32:58.357Z,7.90
2019-04-04T16:35:27.718Z,7.05
2019-04-04T16:37:57.092Z,7.67
2019-04-04T16:40:26.467Z,6.17
2019-04-04T16:42:55.873Z,5.50
2019-04-04T16:45:25.254Z,5.87
2019-04-04T16:47:54.675Z,7.10
2019-04-04T16:50:24.387Z,4.57
2019-04-04T16:52:55.740Z,8.00
2019-04-04T16:55:26.752Z,4.70
2019-04-04T16:57:57.804Z,4.80
2019-04-04T17:04:00.992Z,5.27
2019-04-04T17:06:27.338Z,4.67
2019-04-04T17:08:56.804Z,4.83
2019-04-04T17:11:26.216Z,4.70
2019-04-04T17:13:57.292Z,4.40
2019-04-04T17:16:45.847Z,4.40
2019-04-04T17:19:15.315Z,4.00
2019-04-04T17:21:44.800Z,4.70
2019-04-04T17:24:14.247Z,4.50
2019-04-04T17:26:44.074Z,4.50
2019-04-04T17:29:13.589Z,4.55
2019-04-04T17:31:43.360Z,4.40
2019-04-04T17:34:34.076Z,3.90
2019-04-04T17:37:03.776Z,3.67
2019-04-04T17:39:34.915Z,3.90
2019-04-04T17:42:06.191Z,3.70
2019-04-04T17:44:54.905Z,4.30
2019-04-04T17:47:26.159Z,4.05
2019-04-04T17:49:57.318Z,4.50
2019-04-04T17:52:28.909Z,4.00
2019-04-04T17:55:17.722Z,4.47
2019-04-04T17:58:01.126Z,3.90
2019-04-04T18:00:32.316Z,4.23
2019-04-04T18:03:03.516Z,4.30
2019-04-04T18:05:34.713Z,4.70
2019-04-04T18:08:05.916Z,4.40
2019-04-04T18:10:37.123Z,4.03
2019-04-04T18:13:08.328Z,3.67
2019-04-04T18:15:37.878Z,4.10
2019-04-04T18:18:07.455Z,5.75
2019-04-04T18:20:37.030Z,5.37
2019-04-04T18:23:15.099Z,5.05
2019-04-04T18:25:49.466Z,4.97
2019-04-04T18:28:19.095Z,5.30
2019-04-04T18:30:48.675Z,14.03
2019-04-04T18:33:19.624Z,4.80
2019-04-04T18:36:08.678Z,6.90
2019-04-04T18:38:44.212Z,6.60
2019-04-04T18:41:13.774Z,6.30
2019-04-04T18:43:43.355Z,9.90
2019-04-04T18:46:12.923Z,7.30
2019-04-04T18:48:42.490Z,7.70
2019-04-04T18:51:12.069Z,6.97
2019-04-04T18:53:41.639Z,7.50
2019-04-04T18:56:11.215Z,7.60
2019-04-04T18:58:40.787Z,8.00
2019-04-04T19:01:10.365Z,13.13
2019-04-04T19:03:39.950Z,10.13
2019-04-04T19:06:28.998Z,7.47
2019-04-04T19:08:58.581Z,10.23
2019-04-04T19:11:28.626Z,9.28
2019-04-04T19:14:04.168Z,8.55
2019-04-04T19:16:53.065Z,12.30
2019-04-04T19:19:22.629Z,8.85
2019-04-04T19:21:52.197Z,14.95
2019-04-04T19:24:21.770Z,13.35
2019-04-04T19:26:51.351Z,9.05
2019-04-04T19:29:40.276Z,10.20
2019-04-04T19:32:10.335Z,15.05
2019-04-04T19:34:40.049Z,12.40
2019-04-04T19:37:09.640Z,12.35
2019-04-04T19:39:39.199Z,13.88
2019-04-04T19:42:27.880Z,14.55
2019-04-04T19:44:57.448Z,14.80
2019-04-04T19:47:27.099Z,15.78
2019-04-04T19:49:56.676Z,14.75
2019-04-04T19:52:26.451Z,17.35
2019-04-04T19:54:56.017Z,17.57
2019-04-04T19:57:25.606Z,18.37
2019-04-04T19:59:55.177Z,19.48
2019-04-04T20:02:25.283Z,21.23
2019-04-04T20:04:54.847Z,19.12
2019-04-04T20:07:26.052Z,20.88
2019-04-04T20:10:14.778Z,19.87
2019-04-04T20:12:44.338Z,21.73
2019-04-04T20:15:14.004Z,21.15
2019-04-04T20:17:43.567Z,22.90
2019-04-04T20:20:53.057Z,24.67
2019-04-04T20:23:22.603Z,19.82
2019-04-04T20:25:52.100Z,20.92
2019-04-04T20:28:21.605Z,18.17
2019-04-04T20:30:51.196Z,17.48
2019-04-04T20:33:20.941Z,17.00
2019-04-04T20:35:55.633Z,16.55
2019-04-04T20:38:25.172Z,15.88
2019-04-04T20:41:16.267Z,16.15
2019-04-04T20:43:50.565Z,14.45
2019-04-04T20:46:20.410Z,17.25
2019-04-04T20:48:49.834Z,17.12
2019-04-04T20:51:19.227Z,17.52
2019-04-04T20:53:48.619Z,15.98
2019-04-04T20:56:17.982Z,18.57
2019-04-04T20:58:47.368Z,16.10
2019-04-04T21:01:16.898Z,18.55
2019-04-04T21:03:46.257Z,16.05
2019-04-04T21:06:15.770Z,20.15
2019-04-04T21:08:45.114Z,15.35
2019-04-04T21:11:14.464Z,19.52
2019-04-04T21:13:55.572Z,18.37
2019-04-04T21:16:20.498Z,17.30
2019-04-04T21:18:50.198Z,15.72
2019-04-04T21:21:20.174Z,16.12
2019-04-04T21:23:49.568Z,16.70
2019-04-04T21:26:18.901Z,15.95
2019-04-04T21:28:48.251Z,26.30
2019-04-04T21:31:17.603Z,16.00
2019-04-04T21:34:06.297Z,25.30
2019-04-04T21:36:40.987Z,18.35
2019-04-04T21:39:10.596Z,17.30
2019-04-04T21:41:39.979Z,18.50
2019-04-04T21:44:09.509Z,17.03
2019-04-04T21:47:01.675Z,17.67
2019-04-04T21:49:31.019Z,19.48
2019-04-04T21:52:00.620Z,17.92
2019-04-04T21:54:29.957Z,18.77
2019-04-04T21:56:59.298Z,16.45
2019-04-04T21:59:28.643Z,18.07
2019-04-04T22:08:28.583Z,20.30
2019-04-04T22:10:58.188Z,15.83
2019-04-04T22:13:27.538Z,25.20
2019-04-04T22:16:09.267Z,24.00
2019-04-04T22:18:38.621Z,19.32
2019-04-04T22:21:07.962Z,19.52
2019-04-04T22:23:37.435Z,21.35
2019-04-04T22:26:06.808Z,20.80
2019-04-04T22:28:36.129Z,22.47
2019-04-04T22:31:05.462Z,24.18
2019-04-04T22:33:34.809Z,21.80
2019-04-04T22:36:04.231Z,27.97
2019-04-04T22:38:33.571Z,25.25
2019-04-04T22:41:02.923Z,21.90
2019-04-04T22:43:32.265Z,25.32
2019-04-04T22:46:01.608Z,24.95
2019-04-04T22:48:30.973Z,21.15
2019-04-04T22:51:00.299Z,34.75
2019-04-04T22:53:29.647Z,23.35
2019-04-04T22:56:18.326Z,28.40
2019-04-04T22:58:47.668Z,23.75
2019-04-04T23:01:17.010Z,22.13
2019-04-04T23:03:46.365Z,22.95
2019-04-04T23:06:15.710Z,25.30
2019-04-04T23:08:45.045Z,22.17
2019-04-04T23:11:14.397Z,23.12
2019-04-04T23:13:43.740Z,24.72
2019-04-04T23:16:13.084Z,25.80
2019-04-04T23:18:42.675Z,21.50
2019-04-04T23:21:12.012Z,22.58
2019-04-04T23:23:41.353Z,20.90
2019-04-04T23:26:30.047Z,24.00
2019-04-04T23:28:59.388Z,21.33
2019-04-04T23:31:28.732Z,25.60
2019-04-04T23:34:10.328Z,25.02
2019-04-04T23:36:39.667Z,22.30
2019-04-04T23:39:34.026Z,26.45
2019-04-04T23:42:03.367Z,24.45
2019-04-04T23:44:32.696Z,25.40
2019-04-04T23:47:02.039Z,23.87
2019-04-04T23:49:31.381Z,21.57
2019-04-04T23:52:00.724Z,24.15
2019-04-04T23:54:37.247Z,22.70
2019-04-04T23:57:06.591Z,22.13
2019-04-04T23:59:35.935Z,21.75
